Flight Track Log - Related Links

Times and Time Zones

All times are in EDT time to prevent confusion due to time zone crossing. See the N99PN flight status page for this flight to view local times or setup timezone preferences in your user account.

Time Position Orientation Groundspeed Altitude Reporting Facility
EDT Latitude Longitude Course Direction KTS MPH feet Rate Location/Type
Mon 02:16:55 PM 28.5500 -81.3167 41° Northeast 107 123 400  Level Orlando TRACON
Mon 02:18:32 PM 28.6000 -81.2667 41° Northeast 157 181 1,700 589 Climbing Orlando TRACON
Mon 02:19:38 PM 28.6167 -81.3333 286° West 177 204 2,000 158 Climbing Orlando TRACON
Mon 02:20:26 PM 28.6167 -81.3833 270° West 189 217 2,000 211 Level Orlando TRACON
Mon 02:21:32 PM 28.5833 -81.4333 233° Southwest 176 203 2,400 519 Climbing Orlando TRACON
Mon 02:23:08 PM 28.5639 -81.5056 253° West 174 200 3,400 797 Climbing Miami Center
Mon 02:24:10 PM 28.5472 -81.5622 252° West 162 186 4,500 968 Climbing Miami Center
Mon 02:25:12 PM 28.5153 -81.5972 224° Southwest 162 186 5,400 886 Climbing Miami Center
Mon 02:26:39 PM 28.4500 -81.6333 206° Southwest 164 189 6,700 811 Climbing Orlando TRACON
Mon 02:27:40 PM 28.4167 -81.6667 221° Southwest 169 194 7,400 447 Climbing Orlando TRACON
Mon 02:29:20 PM 28.3500 -81.7167 213° Southwest 185 213 7,900 258 Climbing Tampa TRACON
Mon 02:30:23 PM 28.3050 -81.7494 213° Southwest 199 229 8,100 48 Climbing Miami Center
Mon 02:31:25 PM 28.2586 -81.7833 213° Southwest 199 229 8,000  Descending Miami Center
Mon 02:33:15 PM 28.1667 -81.8500 213° Southwest 198 228 8,100 35 Climbing Tampa TRACON
Mon 02:34:15 PM 28.1167 -81.8833 210° Southwest 199 229 8,100  Level Tampa TRACON
Mon 02:35:15 PM 28.0833 -81.9333 233° Southwest 194 223 8,100 -200 Level Tampa TRACON
Mon 02:37:15 PM 28.0000 -82.0167 221° Southwest 193 222 7,500 -541 Descending Tampa TRACON
Mon 02:39:41 PM 27.9019 -82.1008 217° Southwest 191 220 5,700 -833 Descending Miami Center
Mon 02:40:15 PM 27.8667 -82.1333 219° Southwest 189 217 5,000 -638 Descending Tampa TRACON
Mon 02:42:21 PM 27.7833 -82.2000 215° Southwest 185 213 4,000 -323 Descending Tampa TRACON
Mon 02:43:21 PM 27.7500 -82.2333 222° Southwest 190 219 4,000  Level Tampa TRACON
Mon 02:44:21 PM 27.7000 -82.2667 211° Southwest 191 220 4,000  Level Tampa TRACON
Mon 02:45:27 PM 27.6667 -82.3167 233° Southwest 197 227 4,000  Level Tampa TRACON
Mon 02:46:21 PM 27.6333 -82.3667 233° Southwest 196 226 4,000 56 Level Tampa TRACON
Mon 02:47:15 PM 27.6167 -82.4167 249° West 192 221 4,100  Climbing Tampa TRACON
Mon 02:48:15 PM 27.6000 -82.4667 249° West 196 226 4,000 -378 Descending Tampa TRACON
Mon 02:49:22 PM 27.5667 -82.5333 241° Southwest 191 220 3,300 -803 Descending Tampa TRACON
Mon 02:50:22 PM 27.5500 -82.5833 249° West 189 217 2,300 -750 Descending Tampa TRACON
Mon 02:51:22 PM 27.5000 -82.6167 211° Southwest 182 209 1,800 -408 Descending Tampa TRACON
Mon 02:52:05 PM 27.4817 -82.6375 225° Southwest 183 211 1,600 -286 Descending Miami Center
Mon 02:53:28 PM 27.4333 -82.6167 159° South 94 108 1,200 -324 Descending Tampa TRACON
Mon 02:55:10 PM 27.4117 -82.5742 120° Southeast 108 124 600 -353 Descending Miami Center
Mon 02:57:00 PM 27.3954 -82.5544 170° South  Level Estimated
Mon 03:04:00 PM 27.3954 -82.5544 North  Level Estimated

Login

Don't have an account? Register now (free) for customized features, flight alerts, and more!